Adams Mills, OH

5:57 AM EST on November 23, 2014 (GMT -0500)
Falls Twp | Change Station
CLOSE
Current Station
Personal Weather Station
Location: North Zanesville, OH
Elevation: 800 ft
Nearby Weather Stations

Elev 800 ft 39.98 °N, 82.02 °W | Updated 5 seconds ago

Overcast
Overcast
47.3 °F
Feels Like 47 °F
N
0.0
Wind Variable Wind from SE
Gusts 0.0 mph

Today
High -- | Low -- °F
--% Chance of Precip.
Yesterday
High -- | Low -- °F
Precip. -- in
7:22 AM 5:06 PM
New Moon, 1% visible
Pressure 30.08 in
Visibility 10.0 miles
Clouds Mostly Cloudy 10000 ft
Windchill 47 °F
Dew Point 34 °F
Humidity 59%
Rainfall 0.00 in
Snow Depth Not available.
UV 0 out of 12
Pollen .10 out of 12
Air Quality Not available.
Flu Activity Not available.
METAR KZZV 230953Z AUTO 14005KT 10SM BKN100 07/M01 A3007 RMK AO2 SLP185 T00671011

More Conditions Fewer Conditions

Pressure 30.08 in
Visibility 10.0 miles
Clouds Mostly Cloudy 10000 ft
Windchill 47 °F
Dew Point 34 °F
Humidity 59%
Rainfall 0.00 in
Snow Depth Not available.
UV 0 out of 12
Pollen .10 out of 12
Air Quality Not available.
Flu Activity Not available.
METAR KZZV 230953Z AUTO 14005KT 10SM BKN100 07/M01 A3007 RMK AO2 SLP185 T00671011

More Conditions Fewer Conditions

10-Day Weather Forecast

Almanac

Astronomy

Nov. 23, 2014 Rise Set
Actual Time
Civil Twilight
Nautical Twilight
Astronomical Twilight
Moon
Length of Visible Light
Length of Day
Tomorrow will be .
, % of the Moon is Illuminated

Today's Extremes

State Highs State Lows

Community

WunderPhotos

Upload Photos

1,773,033 photos uploaded!

WunderBlogs® & News

Nearby

Air Quality

  Air Quality AQ Index Pollutant
Not available.

Snow Depth

Station Depth Elevation

Earthquake Activity

City Distance Mag. Time & Date
Minimum magnitude displayed is 2.5.

Coastal Water Temperatures

Place Temperature

Nearby Weather Stations